createdAt,value
2022-10-10T00:02:35.349Z,7.20
2022-10-10T00:05:23.344Z,6.73
2022-10-10T00:08:12.607Z,6.87
2022-10-10T00:11:00.524Z,7.40
2022-10-10T00:13:48.802Z,6.77
2022-10-10T00:16:36.529Z,6.30
2022-10-10T00:19:24.505Z,6.57
2022-10-10T00:22:12.291Z,7.03
2022-10-10T00:25:01.338Z,7.30
2022-10-10T00:27:48.900Z,7.23
2022-10-10T00:30:37.029Z,7.60
2022-10-10T00:33:24.740Z,6.63
2022-10-10T00:36:13.181Z,6.67
2022-10-10T00:39:01.683Z,8.07
2022-10-10T00:41:50.862Z,6.63
2022-10-10T00:44:38.754Z,7.80
2022-10-10T00:47:26.760Z,6.13
2022-10-10T00:50:14.733Z,6.27
2022-10-10T00:53:03.038Z,6.13
2022-10-10T00:55:51.384Z,7.33
2022-10-10T00:58:44.395Z,7.23
2022-10-10T01:01:32.639Z,7.10
2022-10-10T01:04:37.944Z,6.93
2022-10-10T01:07:29.846Z,6.60
2022-10-10T01:10:20.613Z,6.60
2022-10-10T01:13:19.899Z,7.07
2022-10-10T01:16:19.136Z,7.23
2022-10-10T01:19:20.642Z,7.13
2022-10-10T01:22:22.749Z,5.93
2022-10-10T01:25:22.757Z,6.57
2022-10-10T01:28:23.776Z,7.33
2022-10-10T01:31:15.044Z,6.80
2022-10-10T01:34:08.624Z,6.03
2022-10-10T01:37:01.962Z,6.97
2022-10-10T01:39:57.597Z,6.63
2022-10-10T01:42:51.111Z,7.93
2022-10-10T01:45:45.225Z,7.60
2022-10-10T01:48:33.663Z,7.90
2022-10-10T01:51:36.095Z,7.50
2022-10-10T01:54:41.415Z,7.93
2022-10-10T01:57:37.368Z,7.63
2022-10-10T02:00:25.206Z,8.13
2022-10-10T02:03:18.294Z,8.03
2022-10-10T02:06:13.450Z,8.37
2022-10-10T02:09:05.424Z,8.30
2022-10-10T02:11:54.605Z,8.10
2022-10-10T02:14:45.971Z,8.33
2022-10-10T02:17:37.245Z,9.33
2022-10-10T02:20:28.416Z,7.87
2022-10-10T02:23:19.069Z,7.53
2022-10-10T02:26:07.366Z,8.07
2022-10-10T02:28:58.737Z,7.63
2022-10-10T02:31:55.121Z,7.40
2022-10-10T02:34:45.967Z,7.60
2022-10-10T02:37:37.186Z,8.13
2022-10-10T02:40:28.533Z,7.53
2022-10-10T02:43:17.961Z,8.03
2022-10-10T02:46:09.595Z,8.67
2022-10-10T02:48:57.304Z,8.07
2022-10-10T02:51:45.594Z,8.13
2022-10-10T02:54:34.764Z,8.80
2022-10-10T02:57:22.709Z,9.37
2022-10-10T03:00:11.213Z,9.10
2022-10-10T03:02:58.844Z,9.97
2022-10-10T03:05:47.107Z,11.67
2022-10-10T03:08:35.044Z,10.93
2022-10-10T03:11:24.103Z,11.37
2022-10-10T03:14:12.042Z,11.53
2022-10-10T03:16:59.669Z,11.33
2022-10-10T03:19:47.507Z,11.23
2022-10-10T03:22:35.178Z,10.87
2022-10-10T03:25:22.758Z,10.77
2022-10-10T03:28:12.209Z,10.87
2022-10-10T03:30:59.991Z,10.30
2022-10-10T03:33:47.582Z,12.07
2022-10-10T03:36:35.126Z,11.47
2022-10-10T03:39:22.945Z,11.37
2022-10-10T03:42:10.883Z,11.43
2022-10-10T03:45:00.156Z,11.23
2022-10-10T03:47:47.951Z,11.63
2022-10-10T03:50:36.217Z,12.47
2022-10-10T03:53:24.372Z,12.20
2022-10-10T03:56:12.121Z,11.63
2022-10-10T03:59:00.914Z,13.43
2022-10-10T04:01:50.100Z,13.10
2022-10-10T04:04:37.823Z,13.10
2022-10-10T04:07:25.659Z,12.93
2022-10-10T04:10:13.448Z,11.77
2022-10-10T04:13:01.366Z,12.80
2022-10-10T04:15:52.205Z,13.00
2022-10-10T04:18:41.652Z,12.10
2022-10-10T04:21:32.161Z,12.17
2022-10-10T04:24:20.200Z,12.17
2022-10-10T04:27:08.023Z,11.43
2022-10-10T04:29:56.317Z,12.60
2022-10-10T04:32:44.039Z,11.93
2022-10-10T04:35:33.137Z,12.87
2022-10-10T04:38:21.439Z,11.80
2022-10-10T04:41:08.965Z,11.30
2022-10-10T04:43:56.896Z,11.27
2022-10-10T04:46:44.607Z,11.40
2022-10-10T04:49:32.453Z,11.27
2022-10-10T04:52:21.537Z,11.40
2022-10-10T04:55:09.882Z,11.67
2022-10-10T04:57:57.498Z,11.80
2022-10-10T05:00:45.698Z,11.13
2022-10-10T05:03:36.227Z,10.63
2022-10-10T05:06:24.061Z,11.50
2022-10-10T05:09:13.552Z,11.73
2022-10-10T05:12:01.515Z,12.33
2022-10-10T05:14:49.365Z,11.13
2022-10-10T05:17:37.313Z,11.73
2022-10-10T05:20:25.029Z,10.70
2022-10-10T05:23:13.071Z,10.87
2022-10-10T05:26:02.553Z,11.03
2022-10-10T05:28:50.473Z,10.93
2022-10-10T05:31:38.197Z,12.00
2022-10-10T05:34:26.268Z,11.53
2022-10-10T05:37:13.780Z,12.13
2022-10-10T05:40:01.531Z,12.87
2022-10-10T05:42:51.341Z,12.20
2022-10-10T05:45:40.286Z,12.67
2022-10-10T05:48:28.077Z,12.17
2022-10-10T05:51:15.750Z,12.77
2022-10-10T05:54:05.217Z,14.07
2022-10-10T05:56:52.763Z,13.83
2022-10-10T05:59:42.229Z,15.23
2022-10-10T06:02:29.916Z,13.83
2022-10-10T06:05:17.920Z,15.43
2022-10-10T06:08:11.629Z,15.73
2022-10-10T06:11:03.927Z,17.07
2022-10-10T06:13:54.350Z,17.97
2022-10-10T06:16:46.054Z,16.97
2022-10-10T06:19:34.093Z,17.53
2022-10-10T06:22:22.050Z,18.57
2022-10-10T06:25:29.026Z,19.40
2022-10-10T06:28:18.304Z,18.20
2022-10-10T06:31:08.379Z,19.40
2022-10-10T06:33:57.308Z,18.17
2022-10-10T06:36:44.811Z,19.70
2022-10-10T06:39:33.486Z,19.00
2022-10-10T06:42:21.107Z,20.60
2022-10-10T06:45:17.951Z,18.60
2022-10-10T06:48:06.576Z,18.57
2022-10-10T06:51:00.057Z,19.30
2022-10-10T06:53:48.541Z,18.47
2022-10-10T06:56:36.114Z,18.57
2022-10-10T06:59:25.019Z,17.63
2022-10-10T07:02:15.133Z,17.50
2022-10-10T07:05:03.138Z,17.30
2022-10-10T07:07:53.564Z,18.03
2022-10-10T07:10:41.669Z,16.83
2022-10-10T07:13:29.761Z,16.60
2022-10-10T07:16:17.680Z,16.70
2022-10-10T07:19:06.266Z,16.77
2022-10-10T07:21:54.254Z,17.30
2022-10-10T07:24:43.594Z,15.57
2022-10-10T07:27:31.709Z,17.87
2022-10-10T07:30:20.075Z,15.83
2022-10-10T07:33:08.203Z,14.63
2022-10-10T07:35:56.131Z,13.73
2022-10-10T07:38:43.742Z,15.20
2022-10-10T07:41:32.907Z,14.98
2022-10-10T07:44:21.749Z,14.25
2022-10-10T07:47:09.528Z,13.45
2022-10-10T07:49:57.181Z,13.52
2022-10-10T07:52:44.843Z,14.00
2022-10-10T07:55:32.490Z,13.15
2022-10-10T07:58:21.393Z,13.52
2022-10-10T08:01:11.843Z,14.32
2022-10-10T08:03:59.752Z,13.48
2022-10-10T08:06:48.438Z,14.10
2022-10-10T08:09:36.381Z,12.50
2022-10-10T08:12:24.178Z,12.82
2022-10-10T08:15:13.609Z,12.00
2022-10-10T08:18:01.584Z,10.98
2022-10-10T08:20:49.520Z,11.93
2022-10-10T08:23:38.012Z,11.38
2022-10-10T08:26:26.060Z,11.05
2022-10-10T08:29:14.252Z,11.65
2022-10-10T08:32:03.606Z,11.18
2022-10-10T08:34:51.425Z,10.50
2022-10-10T08:37:39.065Z,10.68
2022-10-10T08:40:29.232Z,9.95
2022-10-10T08:43:23.431Z,9.90
2022-10-10T08:46:17.719Z,9.43
2022-10-10T08:49:18.903Z,9.52
2022-10-10T08:52:12.102Z,9.02
2022-10-10T08:55:02.017Z,9.80
2022-10-10T08:57:52.918Z,8.57
2022-10-10T09:00:46.405Z,8.85
2022-10-10T09:03:41.400Z,8.80
2022-10-10T09:06:42.041Z,8.80
2022-10-10T09:09:39.013Z,9.10
2022-10-10T09:12:35.285Z,8.20
2022-10-10T09:15:27.509Z,8.63
2022-10-10T09:18:23.817Z,7.43
2022-10-10T09:21:17.487Z,8.00
2022-10-10T09:24:12.005Z,7.72
2022-10-10T09:27:04.076Z,8.05
2022-10-10T09:29:55.925Z,7.82
2022-10-10T09:32:51.263Z,8.45
2022-10-10T09:35:42.236Z,7.65
2022-10-10T09:38:35.354Z,8.07
2022-10-10T09:41:29.814Z,7.18
2022-10-10T09:44:21.276Z,7.00
2022-10-10T09:47:11.467Z,6.95
2022-10-10T09:50:00.672Z,7.50
2022-10-10T09:52:49.722Z,6.45
2022-10-10T09:55:39.998Z,6.70
2022-10-10T09:58:35.066Z,7.90
2022-10-10T10:01:25.079Z,6.75
2022-10-10T10:04:27.020Z,6.82
2022-10-10T10:07:26.667Z,6.32
2022-10-10T10:10:21.869Z,6.22
2022-10-10T10:13:15.590Z,6.40
2022-10-10T10:16:11.353Z,5.85
2022-10-10T10:18:59.432Z,5.97
2022-10-10T10:21:52.699Z,6.60
2022-10-10T10:24:40.609Z,6.47
2022-10-10T10:27:30.261Z,6.53
2022-10-10T10:30:27.044Z,5.97
2022-10-10T10:33:42.526Z,5.88
2022-10-10T10:36:42.342Z,6.05
2022-10-10T10:39:44.368Z,5.93
2022-10-10T10:42:45.765Z,5.70
2022-10-10T10:45:44.842Z,5.45
2022-10-10T10:48:42.385Z,5.68
2022-10-10T10:51:51.278Z,5.90
2022-10-10T10:54:56.447Z,5.90
2022-10-10T10:58:37.252Z,5.75
2022-10-10T11:01:54.816Z,5.50
2022-10-10T11:05:22.509Z,5.60
2022-10-10T11:08:04.371Z,5.90
2022-10-10T11:11:00.699Z,5.93
2022-10-10T11:13:56.864Z,5.53
2022-10-10T11:16:49.612Z,5.82
2022-10-10T11:19:44.224Z,5.43
2022-10-10T11:22:36.729Z,5.68
2022-10-10T11:25:30.889Z,5.05
2022-10-10T11:28:23.693Z,5.90
2022-10-10T11:31:14.853Z,6.13
2022-10-10T11:34:08.253Z,5.25
2022-10-10T11:37:04.680Z,5.50
2022-10-10T11:39:56.839Z,5.18
2022-10-10T11:42:50.525Z,5.28
2022-10-10T11:45:45.653Z,6.30
2022-10-10T11:48:40.535Z,5.18
2022-10-10T11:51:42.328Z,5.80
2022-10-10T11:54:38.169Z,5.40
2022-10-10T11:57:34.024Z,5.03
2022-10-10T12:00:22.276Z,5.47
2022-10-10T12:03:10.707Z,5.35
2022-10-10T12:06:04.284Z,5.72
2022-10-10T12:08:58.204Z,5.35
2022-10-10T12:11:54.367Z,5.55
2022-10-10T12:14:48.274Z,5.40
2022-10-10T12:17:39.817Z,5.05
2022-10-10T12:20:35.793Z,4.97
2022-10-10T12:23:28.932Z,4.80
2022-10-10T12:26:21.673Z,5.57
2022-10-10T12:29:12.414Z,5.53
2022-10-10T12:32:24.955Z,4.80
2022-10-10T12:35:45.608Z,5.10
2022-10-10T12:38:33.502Z,5.03
2022-10-10T12:41:21.790Z,5.18
2022-10-10T12:44:23.701Z,5.22
2022-10-10T12:48:04.581Z,5.55
2022-10-10T12:50:58.577Z,5.57
2022-10-10T12:53:50.772Z,5.10
2022-10-10T12:56:41.969Z,5.68
2022-10-10T12:59:32.126Z,5.30
2022-10-10T13:02:23.590Z,5.55
2022-10-10T13:05:15.373Z,5.18
2022-10-10T13:08:06.120Z,5.70
2022-10-10T13:11:05.973Z,6.43
2022-10-10T13:13:55.522Z,5.88
2022-10-10T13:16:46.143Z,6.28
2022-10-10T13:19:43.623Z,5.38
2022-10-10T13:22:33.407Z,5.57
2022-10-10T13:25:21.588Z,5.50
2022-10-10T13:28:18.396Z,5.50
2022-10-10T13:31:11.663Z,5.32
2022-10-10T13:34:04.832Z,5.20
2022-10-10T13:36:56.286Z,5.65
2022-10-10T13:39:44.544Z,5.18
2022-10-10T13:42:35.720Z,5.82
2022-10-10T13:45:48.510Z,5.65
2022-10-10T13:48:41.134Z,5.90
2022-10-10T13:51:45.703Z,6.55
2022-10-10T13:54:45.066Z,6.07
2022-10-10T13:57:33.331Z,6.65
2022-10-10T14:00:23.420Z,6.07
2022-10-10T14:03:17.357Z,5.85
2022-10-10T14:06:05.202Z,6.00
2022-10-10T14:08:56.598Z,6.57
2022-10-10T14:11:44.918Z,6.45
2022-10-10T14:14:41.819Z,6.68
2022-10-10T14:17:30.120Z,6.18
2022-10-10T14:20:18.185Z,6.70
2022-10-10T14:23:06.253Z,6.43
2022-10-10T14:25:55.505Z,6.72
2022-10-10T14:28:44.062Z,7.75
2022-10-10T14:51:33.682Z,6.55
2022-10-10T14:54:19.368Z,5.75
2022-10-10T14:57:10.197Z,6.10
2022-10-10T15:00:00.416Z,5.30
2022-10-10T15:02:48.852Z,6.00
2022-10-10T15:05:37.549Z,5.75
2022-10-10T15:08:25.353Z,5.45
2022-10-10T15:11:17.691Z,6.18
2022-10-10T15:14:05.330Z,4.90
2022-10-10T15:16:54.543Z,4.93
2022-10-10T15:22:30.495Z,4.57
2022-10-10T15:25:18.474Z,5.40
2022-10-10T15:28:07.208Z,5.10
2022-10-10T15:30:55.581Z,4.72
2022-10-10T15:33:45.015Z,4.60
2022-10-10T15:36:33.061Z,4.63
2022-10-10T15:39:20.709Z,4.43
2022-10-10T15:42:14.990Z,5.00
2022-10-10T15:45:06.001Z,4.65
2022-10-10T15:47:54.250Z,4.28
2022-10-10T15:50:44.566Z,4.53
2022-10-10T15:53:32.599Z,4.25
2022-10-10T15:56:20.552Z,4.78
2022-10-10T15:59:09.801Z,4.80
2022-10-10T16:01:57.618Z,4.80
2022-10-10T16:04:46.294Z,5.15
2022-10-10T16:07:42.121Z,5.45
2022-10-10T16:10:38.670Z,5.50
2022-10-10T16:13:26.475Z,5.40
2022-10-10T16:16:14.036Z,5.60
2022-10-10T16:19:01.888Z,5.55
2022-10-10T16:21:49.751Z,6.28
2022-10-10T16:24:39.049Z,6.00
2022-10-10T16:27:27.930Z,6.38
2022-10-10T16:30:16.568Z,6.80
2022-10-10T16:33:04.724Z,7.72
2022-10-10T16:35:52.356Z,7.47
2022-10-10T16:38:40.538Z,7.63
2022-10-10T16:41:48.737Z,7.22
2022-10-10T16:44:37.533Z,7.03
2022-10-10T16:47:25.403Z,6.82
2022-10-10T16:50:13.713Z,6.53
2022-10-10T16:53:01.563Z,7.18
2022-10-10T16:55:49.348Z,7.20
2022-10-10T16:58:39.634Z,7.10
2022-10-10T17:01:28.302Z,7.03
2022-10-10T17:04:16.214Z,9.45
2022-10-10T17:07:04.002Z,7.78
2022-10-10T17:09:51.425Z,8.10
2022-10-10T17:12:39.214Z,8.50
2022-10-10T17:15:28.772Z,9.07
2022-10-10T17:18:17.641Z,9.30
2022-10-10T17:21:09.401Z,9.98
2022-10-10T17:23:57.373Z,11.48
2022-10-10T17:26:45.161Z,11.30
2022-10-10T17:29:32.664Z,13.05
2022-10-10T17:32:22.276Z,13.38
2022-10-10T17:35:10.342Z,13.23
2022-10-10T17:37:58.295Z,13.93
2022-10-10T17:40:46.414Z,15.77
2022-10-10T17:43:34.897Z,13.52
2022-10-10T17:46:40.893Z,11.05
2022-10-10T17:49:30.409Z,10.18
2022-10-10T17:52:21.202Z,10.45
2022-10-10T17:55:09.909Z,10.57
2022-10-10T17:57:57.787Z,13.02
2022-10-10T18:00:45.528Z,15.40
2022-10-10T18:03:33.345Z,14.25
2022-10-10T18:06:24.332Z,13.55
2022-10-10T18:09:11.745Z,15.00
2022-10-10T18:11:59.844Z,14.65
2022-10-10T18:14:47.833Z,13.27
2022-10-10T18:17:35.766Z,13.95
2022-10-10T18:20:25.317Z,14.15
2022-10-10T18:23:14.403Z,14.40
2022-10-10T18:26:02.295Z,15.35
2022-10-10T18:28:52.484Z,14.75
2022-10-10T18:31:40.511Z,15.48
2022-10-10T18:34:28.690Z,14.93
2022-10-10T18:37:16.401Z,14.25
2022-10-10T18:40:07.512Z,13.85
2022-10-10T18:42:55.278Z,14.05
2022-10-10T18:45:42.612Z,13.43
2022-10-10T18:48:31.174Z,13.90
2022-10-10T18:51:22.829Z,12.35
2022-10-10T18:54:13.870Z,12.43
2022-10-10T18:57:03.398Z,13.02
2022-10-10T18:59:51.343Z,11.98
2022-10-10T19:02:39.731Z,11.95
2022-10-10T19:05:27.488Z,11.50
2022-10-10T19:08:15.169Z,11.70
2022-10-10T19:11:04.215Z,10.73
2022-10-10T19:13:54.393Z,10.73
2022-10-10T19:16:43.294Z,9.75
2022-10-10T19:19:31.536Z,9.45
2022-10-10T19:22:19.656Z,10.02
2022-10-10T19:25:10.451Z,9.35
2022-10-10T19:27:58.659Z,8.32
2022-10-10T19:30:49.195Z,8.77
2022-10-10T19:33:37.173Z,9.35
2022-10-10T19:36:25.551Z,8.88
2022-10-10T19:39:13.431Z,8.70
2022-10-10T19:42:01.200Z,9.23
2022-10-10T19:44:48.815Z,8.80
2022-10-10T19:47:37.924Z,10.02
2022-10-10T19:50:26.059Z,10.20
2022-10-10T19:53:17.419Z,10.63
2022-10-10T19:56:07.832Z,10.63
2022-10-10T19:58:57.420Z,10.23
2022-10-10T20:01:45.337Z,10.60
2022-10-10T20:04:34.707Z,10.60
2022-10-10T20:07:22.353Z,10.57
2022-10-10T20:10:12.355Z,10.57
2022-10-10T20:13:00.270Z,10.13
2022-10-10T20:15:49.492Z,9.82
2022-10-10T20:18:39.031Z,10.35
2022-10-10T20:21:31.702Z,9.07
2022-10-10T20:24:19.731Z,9.63
2022-10-10T20:27:07.587Z,9.05
2022-10-10T20:29:55.390Z,11.15
2022-10-10T20:32:43.366Z,9.40
2022-10-10T20:35:30.974Z,11.32
2022-10-10T20:38:20.243Z,11.60
2022-10-10T20:41:09.248Z,9.23
2022-10-10T20:43:59.189Z,10.88
2022-10-10T20:46:47.267Z,10.65
2022-10-10T20:49:35.206Z,11.98
2022-10-10T20:52:22.801Z,12.10
2022-10-10T20:55:12.995Z,11.40
2022-10-10T20:58:00.929Z,12.40
2022-10-10T21:00:49.224Z,12.00
2022-10-10T21:03:37.440Z,11.63
2022-10-10T21:06:27.268Z,10.85
2022-10-10T21:09:16.108Z,11.68
2022-10-10T21:12:05.582Z,11.45
2022-10-10T21:14:53.295Z,12.13
2022-10-10T21:17:41.953Z,11.18
2022-10-10T21:20:29.717Z,12.05
2022-10-10T21:23:17.823Z,11.55
2022-10-10T21:26:06.918Z,11.52
2022-10-10T21:28:57.693Z,11.52
2022-10-10T21:31:45.706Z,11.43
2022-10-10T21:34:33.555Z,11.57
2022-10-10T21:37:21.485Z,10.93
2022-10-10T21:40:10.038Z,10.82
2022-10-10T21:42:58.110Z,10.93
2022-10-10T21:45:47.401Z,9.85
2022-10-10T21:48:35.301Z,10.40
2022-10-10T21:51:23.263Z,10.38
2022-10-10T21:54:11.701Z,10.40
2022-10-10T21:56:59.312Z,10.50
2022-10-10T21:59:47.363Z,10.82
2022-10-10T22:02:36.770Z,10.98
2022-10-10T22:05:24.935Z,9.90
2022-10-10T22:08:13.226Z,9.60
2022-10-10T22:11:05.414Z,9.73
2022-10-10T22:13:53.093Z,10.02
2022-10-10T22:16:40.994Z,9.98
2022-10-10T22:19:30.103Z,9.80
2022-10-10T22:22:17.638Z,9.45
2022-10-10T22:25:06.584Z,8.88
2022-10-10T22:27:57.259Z,9.98
2022-10-10T22:30:45.499Z,9.73
2022-10-10T22:33:33.067Z,9.73
2022-10-10T22:36:22.363Z,9.48
2022-10-10T22:39:11.185Z,9.73
2022-10-10T22:41:59.429Z,10.70
2022-10-10T22:44:50.061Z,11.18
2022-10-10T22:47:37.741Z,10.93
2022-10-10T22:50:25.967Z,11.57
2022-10-10T22:53:15.402Z,14.55
2022-10-10T22:56:03.868Z,15.40
2022-10-10T22:58:52.271Z,15.73
2022-10-10T23:01:40.139Z,15.43
2022-10-10T23:04:27.805Z,15.43
2022-10-10T23:07:20.128Z,16.90
2022-10-10T23:10:10.558Z,17.88
2022-10-10T23:12:58.535Z,16.65
2022-10-10T23:15:46.526Z,17.65
2022-10-10T23:18:34.084Z,16.52
2022-10-10T23:21:21.996Z,17.02
2022-10-10T23:24:09.939Z,16.80
2022-10-10T23:26:58.960Z,18.50
2022-10-10T23:29:46.645Z,17.63
2022-10-10T23:32:34.738Z,16.58
2022-10-10T23:35:22.348Z,17.58
2022-10-10T23:38:10.225Z,17.98
2022-10-10T23:40:58.341Z,16.23
2022-10-10T23:43:47.577Z,17.33
2022-10-10T23:46:35.709Z,17.13
2022-10-10T23:49:23.389Z,17.50
2022-10-10T23:52:06.168Z,17.20
2022-10-10T23:54:48.195Z,15.57
2022-10-10T23:57:36.081Z,17.17
